createdAt,value
2023-05-05T00:02:15.571Z,100691.53
2023-05-05T00:04:42.161Z,100690.66
2023-05-05T00:07:08.844Z,100690.41
2023-05-05T00:09:35.248Z,100682.97
2023-05-05T00:12:01.653Z,100682.66
2023-05-05T00:14:28.068Z,100679.97
2023-05-05T00:16:54.458Z,100676.44
2023-05-05T00:19:20.893Z,100676.06
2023-05-05T00:21:47.288Z,100678.41
2023-05-05T00:24:13.722Z,100680.09
2023-05-05T00:26:40.199Z,100686.88
2023-05-05T00:29:06.631Z,100679.13
2023-05-05T00:31:33.300Z,100674.47
2023-05-05T00:33:59.729Z,100666.75
2023-05-05T00:36:26.149Z,100667.38
2023-05-05T00:38:52.526Z,100666.41
2023-05-05T00:41:18.903Z,100667.88
2023-05-05T00:43:45.289Z,100672.56
2023-05-05T00:46:22.500Z,100667.19
2023-05-05T00:48:48.968Z,100667.97
2023-05-05T00:51:16.827Z,100666.13
2023-05-05T00:53:45.028Z,100660.69
2023-05-05T00:56:15.985Z,100659.03
2023-05-05T00:58:43.123Z,100659.66
2023-05-05T01:01:10.729Z,100673.09
2023-05-05T01:03:38.726Z,100668.88
2023-05-05T01:06:20.749Z,100669.19
2023-05-05T01:09:02.097Z,100663.44
2023-05-05T01:11:47.090Z,100654.88
2023-05-05T01:14:16.975Z,100658.72
2023-05-05T01:16:56.034Z,100654.66
2023-05-05T01:19:34.546Z,100646.22
2023-05-05T01:22:02.717Z,100657.38
2023-05-05T01:24:53.480Z,100657.22
2023-05-05T01:27:34.244Z,100655.00
2023-05-05T01:30:28.175Z,100651.69
2023-05-05T01:32:58.346Z,100649.53
2023-05-05T01:35:31.696Z,100643.97
2023-05-05T01:37:57.978Z,100643.63
2023-05-05T01:40:27.355Z,100654.69
2023-05-05T01:42:54.871Z,100657.22
2023-05-05T01:45:24.768Z,100652.00
2023-05-05T01:47:52.036Z,100653.88
2023-05-05T01:50:18.738Z,100661.69
2023-05-05T01:52:45.852Z,100657.22
2023-05-05T01:55:12.871Z,100653.91
2023-05-05T01:57:39.539Z,100654.41
2023-05-05T02:00:07.524Z,100653.28
2023-05-05T02:02:35.121Z,100655.16
2023-05-05T02:05:02.781Z,100652.81
2023-05-05T02:07:30.828Z,100652.03
2023-05-05T02:09:57.803Z,100655.72
2023-05-05T02:12:24.350Z,100661.81
2023-05-05T02:14:51.171Z,100652.44
2023-05-05T02:17:19.189Z,100658.47
2023-05-05T02:19:46.283Z,100655.59
2023-05-05T02:22:12.669Z,100656.59
2023-05-05T02:24:39.097Z,100653.19
2023-05-05T02:27:07.333Z,100655.56
2023-05-05T02:29:42.570Z,100658.91
2023-05-05T02:32:16.977Z,100655.56
2023-05-05T02:34:45.236Z,100661.00
2023-05-05T02:37:15.782Z,100661.44
2023-05-05T02:39:46.206Z,100658.19
2023-05-05T02:42:16.902Z,100669.78
2023-05-05T02:44:45.041Z,100668.88
2023-05-05T02:47:11.461Z,100664.06
2023-05-05T02:49:37.858Z,100664.63
2023-05-05T02:52:04.413Z,100664.72
2023-05-05T02:54:31.353Z,100661.66
2023-05-05T02:56:58.459Z,100655.53
2023-05-05T02:59:31.265Z,100657.16
2023-05-05T03:02:08.179Z,100662.53
2023-05-05T03:04:58.859Z,100664.38
2023-05-05T03:07:30.598Z,100681.53
2023-05-05T03:10:09.643Z,100676.59
2023-05-05T03:12:39.568Z,100670.44
2023-05-05T03:15:07.453Z,100678.34
2023-05-05T03:17:35.042Z,100681.88
2023-05-05T03:20:03.925Z,100676.38
2023-05-05T03:22:30.607Z,100678.97
2023-05-05T03:24:57.055Z,100680.81
2023-05-05T03:27:23.426Z,100683.88
2023-05-05T03:29:49.833Z,100693.06
2023-05-05T03:32:16.380Z,100682.69
2023-05-05T03:34:42.873Z,100694.59
2023-05-05T03:37:09.250Z,100686.56
2023-05-05T03:39:36.112Z,100690.09
2023-05-05T03:42:02.500Z,100690.56
2023-05-05T03:44:28.933Z,100693.31
2023-05-05T03:46:55.336Z,100684.94
2023-05-05T03:49:21.743Z,100690.41
2023-05-05T03:51:48.128Z,100688.06
2023-05-05T03:54:14.796Z,100693.28
2023-05-05T03:56:41.234Z,100686.59
2023-05-05T03:59:08.659Z,100696.59
2023-05-05T04:01:37.901Z,100708.31
2023-05-05T04:04:04.456Z,100703.69
2023-05-05T04:06:32.000Z,100701.06
2023-05-05T04:08:58.362Z,100709.19
2023-05-05T04:11:24.907Z,100706.31
2023-05-05T04:13:51.291Z,100718.91
2023-05-05T04:16:17.690Z,100714.38
2023-05-05T04:18:44.125Z,100716.47
2023-05-05T04:21:10.561Z,100715.28
2023-05-05T04:23:36.965Z,100716.75
2023-05-05T04:26:03.352Z,100715.88
2023-05-05T04:28:29.749Z,100717.34
2023-05-05T04:30:56.148Z,100721.91
2023-05-05T04:33:22.600Z,100721.25
2023-05-05T04:35:48.985Z,100714.00
2023-05-05T04:38:15.523Z,100719.66
2023-05-05T04:40:41.959Z,100725.28
2023-05-05T04:43:08.487Z,100720.25
2023-05-05T04:45:34.881Z,100730.44
2023-05-05T04:48:01.799Z,100726.16
2023-05-05T04:50:28.194Z,100727.50
2023-05-05T04:52:54.591Z,100738.09
2023-05-05T04:55:21.115Z,100723.03
2023-05-05T04:57:47.492Z,100725.00
2023-05-05T05:00:14.162Z,100721.25
2023-05-05T05:02:41.499Z,100724.16
2023-05-05T05:05:08.421Z,100728.25
2023-05-05T05:07:34.816Z,100738.63
2023-05-05T05:10:01.205Z,100740.06
2023-05-05T05:12:27.603Z,100731.09
2023-05-05T05:14:53.987Z,100736.59
2023-05-05T05:17:21.095Z,100742.25
2023-05-05T05:19:47.494Z,100744.25
2023-05-05T05:22:13.853Z,100754.16
2023-05-05T05:24:40.258Z,100752.00
2023-05-05T05:27:10.100Z,100756.03
2023-05-05T05:29:36.799Z,100758.28
2023-05-05T05:32:03.270Z,100759.19
2023-05-05T05:34:29.822Z,100765.09
2023-05-05T05:36:56.255Z,100766.34
2023-05-05T05:39:23.181Z,100767.59
2023-05-05T05:41:49.580Z,100766.22
2023-05-05T05:44:15.975Z,100766.91
2023-05-05T05:46:42.502Z,100783.13
2023-05-05T05:49:09.030Z,100777.22
2023-05-05T05:51:35.559Z,100781.03
2023-05-05T05:54:01.940Z,100780.22
2023-05-05T05:56:29.074Z,100785.34
2023-05-05T05:58:55.555Z,100792.25
2023-05-05T06:01:21.935Z,100792.06
2023-05-05T06:03:48.427Z,100798.44
2023-05-05T06:06:14.902Z,100808.03
2023-05-05T06:08:41.398Z,100797.75
2023-05-05T06:11:07.872Z,100805.06
2023-05-05T06:13:34.251Z,100802.19
2023-05-05T06:16:00.764Z,100810.16
2023-05-05T06:18:27.332Z,100810.47
2023-05-05T06:20:53.774Z,100804.78
2023-05-05T06:23:20.144Z,100807.69
2023-05-05T06:25:46.691Z,100801.56
2023-05-05T06:28:13.059Z,100807.16
2023-05-05T06:30:39.446Z,100812.03
2023-05-05T06:33:05.977Z,100812.56
2023-05-05T06:35:32.523Z,100808.34
2023-05-05T06:37:58.966Z,100802.81
2023-05-05T06:40:25.394Z,100802.81
2023-05-05T06:42:51.787Z,100804.06
2023-05-05T06:45:18.220Z,100809.53
2023-05-05T06:47:44.675Z,100813.03
2023-05-05T06:50:11.390Z,100811.09
2023-05-05T06:52:37.906Z,100806.81
2023-05-05T06:55:04.596Z,100804.78
2023-05-05T06:57:31.031Z,100821.59
2023-05-05T06:59:57.428Z,100814.97
2023-05-05T07:02:26.007Z,100814.09
2023-05-05T07:04:55.260Z,100813.06
2023-05-05T07:07:21.818Z,100816.41
2023-05-05T07:09:48.195Z,100808.91
2023-05-05T07:12:14.577Z,100812.84
2023-05-05T07:14:40.935Z,100813.28
2023-05-05T07:17:07.320Z,100818.63
2023-05-05T07:19:33.688Z,100809.19
2023-05-05T07:22:00.058Z,100808.34
2023-05-05T07:24:26.455Z,100817.75
2023-05-05T07:26:52.832Z,100818.31
2023-05-05T07:29:19.224Z,100835.78
2023-05-05T07:31:45.883Z,100823.44
2023-05-05T07:34:12.305Z,100827.00
2023-05-05T07:36:38.710Z,100828.16
2023-05-05T07:39:05.090Z,100824.78
2023-05-05T07:41:31.605Z,100833.16
2023-05-05T07:43:58.042Z,100836.50
2023-05-05T07:46:24.444Z,100845.75
2023-05-05T07:48:50.936Z,100840.41
2023-05-05T07:51:17.386Z,100845.47
2023-05-05T07:53:43.913Z,100850.16
2023-05-05T07:56:10.481Z,100851.13
2023-05-05T07:58:36.933Z,100864.16
2023-05-05T08:01:05.752Z,100855.34
2023-05-05T08:03:32.229Z,100854.91
2023-05-05T08:06:07.332Z,100855.59
2023-05-05T08:08:33.875Z,100852.25
2023-05-05T08:11:01.143Z,100856.75
2023-05-05T08:13:28.464Z,100862.31
2023-05-05T08:15:54.944Z,100853.19
2023-05-05T08:18:21.385Z,100860.50
2023-05-05T08:20:47.849Z,100852.38
2023-05-05T08:23:14.212Z,100855.78
2023-05-05T08:25:40.780Z,100859.50
2023-05-05T08:28:07.208Z,100866.75
2023-05-05T08:30:34.965Z,100869.53
2023-05-05T08:33:01.481Z,100871.28
2023-05-05T08:35:27.970Z,100874.16
2023-05-05T08:37:55.973Z,100865.63
2023-05-05T08:40:29.986Z,100872.09
2023-05-05T08:42:56.430Z,100867.88
2023-05-05T08:45:22.827Z,100864.38
2023-05-05T08:47:49.280Z,100869.47
2023-05-05T08:50:17.247Z,100861.66
2023-05-05T08:52:45.048Z,100875.59
2023-05-05T08:55:21.287Z,100867.19
2023-05-05T08:57:52.670Z,100872.25
2023-05-05T09:00:19.846Z,100863.09
2023-05-05T09:02:47.280Z,100857.78
2023-05-05T09:05:13.746Z,100859.88
2023-05-05T09:07:43.912Z,100848.81
2023-05-05T09:10:11.807Z,100849.91
2023-05-05T09:12:42.015Z,100854.72
2023-05-05T09:15:10.521Z,100859.34
2023-05-05T09:17:37.785Z,100857.69
2023-05-05T09:20:08.760Z,100860.66
2023-05-05T09:22:37.531Z,100857.28
2023-05-05T09:25:05.930Z,100853.31
2023-05-05T09:27:41.351Z,100856.34
2023-05-05T09:30:09.437Z,100847.81
2023-05-05T09:32:49.188Z,100845.63
2023-05-05T09:35:16.666Z,100835.66
2023-05-05T09:37:43.052Z,100843.81
2023-05-05T09:40:10.141Z,100839.53
2023-05-05T09:42:37.835Z,100855.59
2023-05-05T09:45:26.029Z,100848.47
2023-05-05T09:50:19.741Z,100841.72
2023-05-05T09:52:55.414Z,100845.94
2023-05-05T09:55:22.128Z,100850.63
2023-05-05T09:57:48.569Z,100843.81
2023-05-05T10:00:15.414Z,100844.06
2023-05-05T10:02:41.992Z,100843.66
2023-05-05T10:05:11.261Z,100848.31
2023-05-05T10:07:38.870Z,100850.59
2023-05-05T10:10:07.058Z,100842.31
2023-05-05T10:12:37.527Z,100838.66
2023-05-05T10:15:05.639Z,100834.34
2023-05-05T10:17:33.549Z,100827.25
2023-05-05T10:20:01.041Z,100827.75
2023-05-05T10:22:29.584Z,100828.75
2023-05-05T10:25:03.490Z,100833.88
2023-05-05T10:27:34.632Z,100832.84
2023-05-05T10:30:06.135Z,100832.59
2023-05-05T10:32:59.283Z,100825.91
2023-05-05T10:35:33.023Z,100828.25
2023-05-05T10:38:00.049Z,100825.28
2023-05-05T10:40:26.798Z,100827.25
2023-05-05T10:42:54.104Z,100806.41
2023-05-05T10:45:20.858Z,100804.09
2023-05-05T10:47:47.632Z,100801.31
2023-05-05T10:50:33.565Z,100789.22
2023-05-05T10:53:16.685Z,100791.97
2023-05-05T10:56:08.911Z,100792.44
2023-05-05T10:58:46.971Z,100802.19
2023-05-05T11:01:33.799Z,100779.28
2023-05-05T11:04:23.159Z,100776.81
2023-05-05T11:07:08.123Z,100768.91
2023-05-05T11:09:42.500Z,100762.97
2023-05-05T11:12:09.129Z,100762.09
2023-05-05T11:14:35.758Z,100761.84
2023-05-05T11:17:02.374Z,100758.59
2023-05-05T11:19:43.975Z,100750.81
2023-05-05T11:22:10.747Z,100752.53
2023-05-05T11:24:39.549Z,100747.47
2023-05-05T11:27:06.236Z,100744.09
2023-05-05T11:30:03.646Z,100738.31
2023-05-05T11:32:30.343Z,100741.13
2023-05-05T11:34:59.667Z,100737.78
2023-05-05T11:37:27.558Z,100723.13
2023-05-05T11:40:04.621Z,100729.31
2023-05-05T11:42:31.128Z,100727.66
2023-05-05T11:44:57.791Z,100726.22
2023-05-05T11:47:25.502Z,100716.47
2023-05-05T11:49:51.919Z,100707.38
2023-05-05T11:52:18.348Z,100710.75
2023-05-05T11:54:49.907Z,100712.56
2023-05-05T11:57:19.542Z,100711.59
2023-05-05T11:59:52.709Z,100714.88
2023-05-05T12:02:19.842Z,100717.72
2023-05-05T12:04:47.126Z,100711.25
2023-05-05T12:07:21.087Z,100716.88
2023-05-05T12:09:48.723Z,100715.28
2023-05-05T12:12:15.914Z,100712.13
2023-05-05T12:14:50.402Z,100718.81
2023-05-05T12:17:17.540Z,100713.72
2023-05-05T12:19:51.199Z,100714.00
2023-05-05T12:22:28.087Z,100711.13
2023-05-05T12:24:58.872Z,100713.25
2023-05-05T12:27:26.942Z,100715.63
2023-05-05T12:29:55.441Z,100712.25
2023-05-05T12:32:27.685Z,100716.38
2023-05-05T12:34:57.268Z,100715.88
2023-05-05T12:37:25.306Z,100718.19
2023-05-05T12:39:52.032Z,100715.16
2023-05-05T12:42:18.841Z,100716.91
2023-05-05T12:44:46.571Z,100717.34
2023-05-05T12:47:13.829Z,100719.09
2023-05-05T12:49:47.817Z,100724.41
2023-05-05T12:52:16.106Z,100749.19
2023-05-05T12:54:56.474Z,100766.59
2023-05-05T12:57:23.272Z,100784.94
2023-05-05T12:59:51.007Z,100799.63
2023-05-05T13:02:17.439Z,100818.91
2023-05-05T13:04:53.823Z,100824.81
2023-05-05T13:07:21.355Z,100838.25
2023-05-05T13:09:48.941Z,100836.56
2023-05-05T13:12:17.533Z,100834.63
2023-05-05T13:14:44.270Z,100837.22
2023-05-05T13:17:12.923Z,100838.41
2023-05-05T13:19:45.879Z,100826.66
2023-05-05T13:22:13.333Z,100823.97
2023-05-05T13:24:50.597Z,100810.16
2023-05-05T13:27:18.566Z,100802.41
2023-05-05T13:29:44.991Z,100773.41
2023-05-05T13:32:11.564Z,100758.44
2023-05-05T13:34:39.011Z,100764.47
2023-05-05T13:37:05.595Z,100765.50
2023-05-05T13:39:31.980Z,100769.84
2023-05-05T13:41:58.429Z,100773.31
2023-05-05T13:44:24.971Z,100768.44
2023-05-05T13:46:51.464Z,100767.78
2023-05-05T13:49:18.019Z,100774.84
2023-05-05T13:51:46.106Z,100783.75
2023-05-05T13:54:12.485Z,100773.06
2023-05-05T13:56:38.966Z,100776.47
2023-05-05T13:59:05.345Z,100781.16
2023-05-05T14:01:31.805Z,100786.84
2023-05-05T14:03:58.423Z,100794.13
2023-05-05T14:06:25.739Z,100784.75
2023-05-05T14:08:52.117Z,100787.19
2023-05-05T14:11:20.650Z,100777.78
2023-05-05T14:13:47.418Z,100776.03
2023-05-05T14:16:13.910Z,100770.97
2023-05-05T14:18:40.763Z,100767.22
2023-05-05T14:21:07.231Z,100757.03
2023-05-05T14:23:33.671Z,100752.19
2023-05-05T14:26:00.416Z,100760.06
2023-05-05T14:28:26.889Z,100752.13
2023-05-05T14:30:53.310Z,100750.00
2023-05-05T14:33:19.726Z,100763.13
2023-05-05T14:35:46.108Z,100748.97
2023-05-05T14:38:12.550Z,100762.53
2023-05-05T14:40:38.945Z,100767.41
2023-05-05T14:43:05.333Z,100769.28
2023-05-05T14:45:31.752Z,100761.19
2023-05-05T14:47:58.203Z,100759.50
2023-05-05T14:50:24.663Z,100763.19
2023-05-05T14:52:51.113Z,100756.41
2023-05-05T14:55:17.599Z,100764.97
2023-05-05T14:57:44.021Z,100760.56
2023-05-05T15:00:10.928Z,100759.59
2023-05-05T15:02:37.659Z,100767.13
2023-05-05T15:05:04.458Z,100767.81
2023-05-05T15:07:30.910Z,100765.66
2023-05-05T15:09:57.396Z,100780.38
2023-05-05T15:12:23.969Z,100784.72
2023-05-05T15:14:50.466Z,100785.19
2023-05-05T15:17:16.898Z,100788.00
2023-05-05T15:19:43.282Z,100797.59
2023-05-05T15:22:09.757Z,100807.13
2023-05-05T15:24:37.096Z,100800.75
2023-05-05T15:27:03.586Z,100808.44
2023-05-05T15:29:30.024Z,100828.78
2023-05-05T15:31:56.410Z,100839.03
2023-05-05T15:34:22.803Z,100855.03
2023-05-05T15:36:49.208Z,100860.09
2023-05-05T15:39:15.675Z,100837.31
2023-05-05T15:41:42.029Z,100848.19
2023-05-05T15:44:11.666Z,100858.63
2023-05-05T15:46:39.051Z,100874.41
2023-05-05T15:49:05.545Z,100872.44
2023-05-05T15:51:32.239Z,100870.38
2023-05-05T15:53:59.372Z,100888.09
2023-05-05T15:56:29.284Z,100888.78
2023-05-05T15:58:56.614Z,100886.44
2023-05-05T16:01:23.124Z,100894.00
2023-05-05T16:03:49.613Z,100886.84
2023-05-05T16:06:16.315Z,100888.31
2023-05-05T16:08:42.773Z,100872.16
2023-05-05T16:11:09.312Z,100876.34
2023-05-05T16:13:35.858Z,100883.81
2023-05-05T16:16:02.350Z,100889.31
2023-05-05T16:18:28.760Z,100891.09
2023-05-05T16:20:55.154Z,100876.84
2023-05-05T16:23:21.555Z,100881.00
2023-05-05T16:25:47.950Z,100892.28
2023-05-05T16:28:14.368Z,100894.22
2023-05-05T16:30:42.730Z,100897.00
2023-05-05T16:33:09.239Z,100895.44
2023-05-05T16:35:36.148Z,100904.63
2023-05-05T16:38:02.520Z,100901.94
2023-05-05T16:40:29.344Z,100894.88
2023-05-05T16:42:55.794Z,100901.56
2023-05-05T16:45:22.498Z,100903.66
2023-05-05T16:47:49.057Z,100900.03
2023-05-05T16:50:17.284Z,100888.97
2023-05-05T16:52:43.704Z,100884.03
2023-05-05T16:55:10.193Z,100887.91
2023-05-05T16:57:36.983Z,100885.56
2023-05-05T17:00:05.027Z,100889.44
2023-05-05T17:02:31.556Z,100886.28
2023-05-05T17:04:58.025Z,100880.88
2023-05-05T17:07:24.481Z,100875.16
2023-05-05T17:09:50.967Z,100869.94
2023-05-05T17:12:17.403Z,100869.25
2023-05-05T17:14:45.255Z,100869.53
2023-05-05T17:17:11.921Z,100889.03
2023-05-05T17:19:38.348Z,100873.75
2023-05-05T17:22:04.977Z,100868.16
2023-05-05T17:24:31.406Z,100864.88
2023-05-05T17:26:58.306Z,100862.00
2023-05-05T17:29:24.786Z,100866.63
2023-05-05T17:31:51.574Z,100864.66
2023-05-05T17:34:18.091Z,100865.97
2023-05-05T17:36:44.522Z,100868.81
2023-05-05T17:39:11.375Z,100863.03
2023-05-05T17:41:37.765Z,100866.41
2023-05-05T17:44:04.292Z,100866.13
2023-05-05T17:46:30.712Z,100851.75
2023-05-05T17:48:57.240Z,100858.06
2023-05-05T17:51:23.726Z,100862.94
2023-05-05T17:53:50.111Z,100859.22
2023-05-05T17:56:16.536Z,100865.47
2023-05-05T17:58:42.984Z,100871.44
2023-05-05T18:01:13.459Z,100877.22
2023-05-05T18:03:40.980Z,100875.75
2023-05-05T18:06:07.665Z,100885.06
2023-05-05T18:08:34.051Z,100878.69
2023-05-05T18:11:01.716Z,100889.38
2023-05-05T18:13:28.181Z,100892.56
2023-05-05T18:15:54.593Z,100902.53
2023-05-05T18:18:21.205Z,100900.41
2023-05-05T18:20:47.648Z,100893.69
2023-05-05T18:23:14.113Z,100903.59
2023-05-05T18:25:41.401Z,100891.72
2023-05-05T18:28:07.866Z,100892.50
2023-05-05T18:30:35.557Z,100898.59
2023-05-05T18:33:02.248Z,100899.97
2023-05-05T18:35:28.951Z,100884.94
2023-05-05T18:37:55.410Z,100890.16
2023-05-05T18:40:22.289Z,100888.91
2023-05-05T18:42:48.826Z,100888.09
2023-05-05T18:45:15.313Z,100888.25
2023-05-05T18:47:41.797Z,100892.09
2023-05-05T18:50:09.853Z,100884.97
2023-05-05T18:52:36.347Z,100892.09
2023-05-05T18:55:02.800Z,100890.41
2023-05-05T18:57:29.250Z,100896.09
2023-05-05T18:59:55.686Z,100898.75
2023-05-05T19:02:22.115Z,100896.81
2023-05-05T19:04:48.606Z,100889.81
2023-05-05T19:10:01.356Z,100895.28
2023-05-05T19:12:27.731Z,100899.03
2023-05-05T19:14:54.130Z,100895.09
2023-05-05T19:17:20.486Z,100896.81
2023-05-05T19:19:46.871Z,100908.06
2023-05-05T19:22:13.255Z,100907.50
2023-05-05T19:24:39.672Z,100903.09
2023-05-05T19:27:08.010Z,100897.97
2023-05-05T19:29:34.385Z,100903.00
2023-05-05T19:32:00.914Z,100899.16
2023-05-05T19:34:27.301Z,100904.09
2023-05-05T19:36:53.680Z,100898.69
2023-05-05T19:39:20.083Z,100898.78
2023-05-05T19:41:46.484Z,100905.06
2023-05-05T19:44:12.910Z,100914.22
2023-05-05T19:46:39.445Z,100915.81
2023-05-05T19:49:06.163Z,100922.91
2023-05-05T19:51:32.574Z,100928.50
2023-05-05T19:53:59.412Z,100922.66
2023-05-05T19:56:26.191Z,100930.88
2023-05-05T19:58:57.611Z,100930.81
2023-05-05T20:01:24.227Z,100919.22
2023-05-05T20:03:51.974Z,100926.13
2023-05-05T20:06:18.651Z,100928.09
2023-05-05T20:08:45.047Z,100926.88
2023-05-05T20:11:11.844Z,100922.31
2023-05-05T20:13:38.947Z,100925.94
2023-05-05T20:16:06.441Z,100934.28
2023-05-05T20:18:33.047Z,100937.38
2023-05-05T20:20:59.516Z,100937.38
2023-05-05T20:23:26.487Z,100937.81
2023-05-05T20:25:53.674Z,100941.00
2023-05-05T20:28:20.079Z,100941.28
2023-05-05T20:30:46.599Z,100941.00
2023-05-05T20:33:13.064Z,100941.75
2023-05-05T20:35:39.561Z,100946.47
2023-05-05T20:38:06.044Z,100936.06
2023-05-05T20:40:33.617Z,100942.19
2023-05-05T20:43:00.135Z,100936.41
2023-05-05T20:45:26.686Z,100935.38
2023-05-05T20:47:53.225Z,100932.88
2023-05-05T20:50:22.492Z,100925.78
2023-05-05T20:52:49.505Z,100926.81
2023-05-05T20:55:15.963Z,100929.94
2023-05-05T20:57:42.342Z,100922.63
2023-05-05T21:00:09.286Z,100922.22
2023-05-05T21:02:36.109Z,100924.72
2023-05-05T21:05:02.942Z,100922.13
2023-05-05T21:07:31.196Z,100923.41
2023-05-05T21:09:57.704Z,100928.88
2023-05-05T21:12:24.113Z,100928.13
2023-05-05T21:14:50.576Z,100926.31
2023-05-05T21:17:17.050Z,100929.78
2023-05-05T21:19:43.429Z,100935.03
2023-05-05T21:22:09.859Z,100935.25
2023-05-05T21:24:38.206Z,100932.06
2023-05-05T21:27:04.602Z,100923.97
2023-05-05T21:29:37.329Z,100929.66
2023-05-05T21:32:04.867Z,100927.13
2023-05-05T21:34:31.409Z,100937.75
2023-05-05T21:36:58.075Z,100934.19
2023-05-05T21:39:24.884Z,100933.56
2023-05-05T21:41:51.454Z,100937.69
2023-05-05T21:44:17.845Z,100935.13
2023-05-05T21:46:44.306Z,100929.53
2023-05-05T21:49:15.334Z,100937.25
2023-05-05T21:51:45.719Z,100938.09
2023-05-05T21:54:12.123Z,100934.44
2023-05-05T21:56:38.615Z,100935.78
2023-05-05T21:59:05.419Z,100941.72
2023-05-05T22:01:32.125Z,100938.84
2023-05-05T22:03:58.643Z,100938.50
2023-05-05T22:06:25.293Z,100935.47
2023-05-05T22:08:51.744Z,100939.56
2023-05-05T22:11:18.743Z,100932.34
2023-05-05T22:13:46.417Z,100930.41
2023-05-05T22:16:12.896Z,100929.63
2023-05-05T22:18:39.288Z,100932.06
2023-05-05T22:21:05.876Z,100925.09
2023-05-05T22:23:32.276Z,100926.41
2023-05-05T22:25:58.654Z,100932.41
2023-05-05T22:28:25.124Z,100928.16
2023-05-05T22:30:51.530Z,100937.31
2023-05-05T22:33:18.956Z,100932.81
2023-05-05T22:35:45.334Z,100934.19
2023-05-05T22:38:11.764Z,100933.97
2023-05-05T22:40:38.149Z,100935.16
2023-05-05T22:43:04.650Z,100940.81
2023-05-05T22:45:31.128Z,100940.72
2023-05-05T22:47:57.695Z,100945.22
2023-05-05T22:50:24.379Z,100949.75
2023-05-05T22:52:50.851Z,100956.72
2023-05-05T22:55:17.504Z,100954.25
2023-05-05T22:57:43.883Z,100946.59
2023-05-05T23:00:10.739Z,100951.31
2023-05-05T23:02:37.852Z,100945.78
2023-05-05T23:05:04.510Z,100940.59
2023-05-05T23:07:30.924Z,100929.56
2023-05-05T23:09:57.314Z,100934.38
2023-05-05T23:12:23.726Z,100938.91
2023-05-05T23:14:50.353Z,100940.53
2023-05-05T23:17:16.845Z,100937.13
2023-05-05T23:19:43.260Z,100935.19
2023-05-05T23:22:09.634Z,100937.22
2023-05-05T23:24:36.094Z,100942.75
2023-05-05T23:27:03.115Z,100933.06
2023-05-05T23:29:29.719Z,100938.00
2023-05-05T23:31:56.659Z,100935.97
2023-05-05T23:34:23.184Z,100939.81
2023-05-05T23:36:49.805Z,100936.22
2023-05-05T23:39:16.446Z,100942.78
2023-05-05T23:41:42.827Z,100940.72
2023-05-05T23:44:09.226Z,100944.78
2023-05-05T23:46:35.688Z,100940.38
2023-05-05T23:49:02.086Z,100937.84
2023-05-05T23:51:28.500Z,100936.03
2023-05-05T23:53:56.515Z,100933.63
2023-05-05T23:56:23.635Z,100931.88
2023-05-05T23:58:50.004Z,100931.28
